Hamburg Helmut Schmidt Airport

EDDH · Hamburg, 德国

罗盘
风向 的 Hamburg Airport 5/23
风: 5 kt, 2 beaufort

3 kt

4 kt
改变
0 1.000 2.000 3.000 4.000 5.000
SCT 2.700 ft
METAR EDHL 041320Z VRB05KT 9999 SCT027 17/11 Q1019

METAR Hamburg Airport - EDDH/HAM

Hamburg Airport是Hamburg,德国中的大型机场。 该机场有2条跑道: 5/23 和 15/33. 该领域的国际民航组织标志是EDDH 它的国际航空运输协会代码是HAM.

这份报告是针对2022年10月4日 15:20, 当地时间在Lübeck Blankensee Airport进行的。

机场观察

可变方向的风很小或没有风。

可见度为10 km 或者更多。

有疏云,零星散落的云朵在2.700 ft的高度。 没有观察到天花板。

温度和风寒是17 °C。 露点为11 °C,相对湿度为68%。 海平面上的气压为1019 hPa (QNH)。

白天

今天,太阳从07:27升起,在18:50降落。 这适用于Hamburg Airport,世界夏令时可能有所不同。 当地时间与世界标准时间之间的时差为+2 小时。 夏令时目前正在进行中。

公司介绍

我们没有关于这个机场的公司信息。

体会

到Vliegles.nl去找飞行课程,跳伞和其他飞行体验。 浏览页面,了解Hamburg Airport附近所有可用的活动。 你也可以使用搜索功能来寻找你所在地附近的特定飞行课程、跳伞或其他飞行体验。

跑道

Id 标题 侧风 逆风 侧风 %
5/23 050°-230° 4 kt 3 kt 77 %
15/33 152°-332° 2 kt 4 kt 47 %

逆风成分最大的方向会被突出显示,并用于横风计算。 这并不一定意味着这个方向在使用。

乌云

2.700 ft SCT 疏云,零星散落的云朵

温度 & 天气

温度 17 °C
露点 11 °C
相对湿度 68%
Kp-index 1 (0-9)

白天

日出
07:24
中午
13:05
日落
18:47 (3h 03m)

小工具

你想在你的网站上有一个关于Hamburg Airport的当前航空天气(METAR)的小部件吗?

</> 显示HTML代码

我们和第三方通过cookies跟踪您在我们网站上的上网行为。如果您继续,我们认为您同意我们的cookie政策。 了解更多